Diogo Miranda

Chefscout - Tondela
28 Nov 2027
Sonntag
Verarbeitung

Persönlichkeit

Anpassungsfähigkeit (3) Ehrgeiz (14) Kontroverse (12) Loyalität (20) Druck (2) Professionalität (1) Fairness (11) Temperament (3)

Profil

Trainerstil Demokratisch
Lizenz Nationale A
Entschlossenheit 12
Menschenführung 8
Motivation 12
Disziplin 5
Arbeitszufriedenheit
100%
Ermüdung
0%
Rolle Chefscout
Gehalt 32.6K p/W
Vertrag 14.03.2029

Leistung

Verhalten Gut
Trainingseffektivität
24%
Spielerentwicklung
45%
Verletzungsprävention
35%
Taktische Umsetzung
25%

Aktuell beobachtet

65
Spieler Verein Status Fähigkeit Vertrauen Beobachtet Zuletzt beobachtet Letzte Stimme
Jamie Wähling Marsaxlokk Aktiv 83 / 97 40% 1 17.08.2027 -
Duvan Giraldo Cortulua Aktiv 121 / 134 40% 3 16.08.2027 -
Ibrahim Sabiu Bendel Insurance Aktiv 81 / 80 40% 1 16.08.2027 -
Kwadwo Atiemo Wa All Stars Aktiv 73 / 94 40% 1 15.08.2027 -
Davide Bartesaghi AC Milan Aktiv 143 / 145 40% 1 15.08.2027 -
Kazunari Kita Real Sociedad Aktiv 106 / 112 40% 1 14.08.2027 -
Martín Jiménez Audax Italiano Aktiv 96 / 111 40% 1 13.08.2027 -
Lautaro Dufur Rentistas Aktiv 100 / 112 40% 1 13.08.2027 -
Jeffrey Annan Hasaacas Aktiv 88 / 105 40% 1 12.08.2027 -
Konta Ismaily Aktiv 92 / 105 40% 1 12.08.2027 -
Keita Kosugi Eintracht Frankfurt Aktiv 136 / 134 40% 1 11.08.2027 -
João Silva Lusitânia Lourosa Aktiv 101 / 96 51% 1 12.07.2027 -
Arjan Malić Sturm Graz Aktiv 124 / 114 40% 5 07.07.2027 -
Dennis Konney US Bougouba Verhandlung 94 / 68 40% 1 07.07.2027 -
Maxim Radchenko Rostov Aktiv 79 / 84 40% 3 05.07.2027 -
Axel Cabellos Cesar Vallejo Aktiv 83 / 84 40% 2 05.07.2027 -
Augusto Bando Ascoli Aktiv 110 / 101 40% 1 04.07.2027 -
Mauricio Amaro Atlanta United FC Aktiv 138 / 116 40% 1 03.07.2027 -
Mohamed Bolivar Barranquilla Aktiv 96 / 96 40% 1 30.06.2027 -
Kaick FC Dallas Aktiv 101 / 100 40% 3 29.06.2027 -
Louis Page West Ham United Aktiv 125 / 128 40% 2 28.06.2027 -
Marcelo Torrez Santos Aktiv 80 / 85 40% 1 25.06.2027 -
Sergey Chernov Zenit Aktiv 89 / 81 40% 1 24.06.2027 -
Dries Vanaken Mouscron Aktiv 119 / 122 40% 3 23.06.2027 -
Sascha Britschgi Udinese Aktiv 125 / 139 40% 1 22.06.2027 -
Daniel Vernattus Metalist Abgelehnt 94 / 105 40% 3 21.06.2027 Ablehnen
Pablo Lúcio Twente Aktiv 96 / 113 40% 1 17.06.2027 -
Ricardo Alves Chaves Aktiv 104 / 103 51% 1 14.06.2027 -
Charalabos Erotokritou Doxa Aktiv 73 / 96 40% 1 14.06.2027 -
Fabián Correa Barranquilla Aktiv 79 / 97 40% 1 14.06.2027 -
Julián Bazán New York Red Bulls Aktiv 118 / 112 40% 3 11.06.2027 -
Godwin Oham Warri Wolves Aktiv 82 / 93 40% 1 11.06.2027 -
Josh Davidson Córdoba Aktiv 81 / 100 40% 2 10.06.2027 -
Jayden Spier Willem II Aktiv 93 / 108 40% 1 10.06.2027 -
Izan Merino Málaga Aktiv 116 / 124 40% 2 09.06.2027 -
Théo Hansen Hobro Aktiv 92 / 95 40% 1 09.06.2027 -
Yussif Saidu Zaragoza Aktiv 131 / 131 40% 1 05.06.2027 -
Juho Lähteenmäki FC Nordsjaelland Aktiv 134 / 139 40% 2 04.06.2027 -
Martim Cunha Porto Aktiv 115 / 101 40% 3 02.06.2027 -
Denys Smetana Metalurh Zaporizhzhia Abgelehnt 96 / 89 40% 1 26.01.2027 Mehr Infos nötig
Enzo Tacafred AS Nancy Aktiv 96 / 94 40% 1 21.01.2027 -
Sergi Domínguez Dinamo Zagreb Aktiv 126 / 133 40% 1 20.01.2027 -
Bogdan Matsola Nart Aktiv 80 / 81 40% 1 19.01.2027 -
Savely Nikiforov Zenit Aktiv 81 / 90 40% 1 19.01.2027 -
Fernando Fonseca Leixões Aktiv 118 / 113 51% 1 18.01.2027 -
Surprise Manthosi Polokwane City Aktiv 77 / 89 40% 1 18.01.2027 -
Renato Guimarães Veracruz Aktiv 107 / 142 40% 4 17.01.2027 -
Santiago Fernández Talleres Aktiv 130 / 132 40% 1 15.01.2027 -
Ian Garguez Puebla Aktiv 103 / 115 40% 1 07.01.2027 -
Larson Palmeiras Aktiv 112 / 116 40% 2 06.01.2027 -
Huguinho Botafogo Aktiv 82 / 114 40% 1 06.01.2027 -
Runar Norheim FC Nordsjaelland Aktiv 109 / 118 40% 1 02.01.2027 -
Alani Maritimo Aktiv 104 / 111 40% 1 02.01.2027 -
Paulo Roberto Vitória Aktiv 84 / 113 40% 1 26.08.2026 -
Xavier Atlético Mineiro Aktiv 90 / 91 40% 1 22.08.2026 -
Pedro Bondo Famalicao Aktiv 106 / 112 40% 1 21.08.2026 -
Arthur Palmeiras Aktiv 91 / 91 40% 1 21.08.2026 -
Sidney Bahia Aktiv 106 / 107 40% 1 20.08.2026 -
Facundo Di Biasi Gimnasia La Plata Aktiv 105 / 127 40% 1 18.08.2026 -
Gabriel Gorgulho Fluminense Aktiv 91 / 103 40% 1 17.08.2026 -
Mbekezeli Mbokazi Chicago Fire Aktiv 141 / 130 40% 1 16.08.2026 -
Luis Sabóia Palmeiras Aktiv 79 / 88 40% 1 14.08.2026 -
Mamady Cissé Atlético Mineiro Aktiv 90 / 120 40% 1 11.08.2026 -
Max Scholze Estrela da Amadora Aktiv 116 / 100 40% 1 07.08.2026 -
Pedro Souza Juventude Aktiv 74 / 90 40% 1 06.08.2026 -